Claunch, New Mexico
Current Conditions -  °F | °C
As of 1:35 AM on Saturday 22 Nov 2014 (Local Time) from KONM Reporting Station
Clear Clear  
Wind Chill: 26°   Ceiling: Unl
Heat Index: 35°   Visibility: 10mi
Dew Point: 20°   Wind: 14mph
Humidity: 54%   Direction: 330°NNW
Pressure: 30.06"   Gusts: 17mph
Location:  34.14°N, 106°W
Report Text: KONM 220835Z AUTO 33012G15KT 10SM CLR 02/M07 A3006 RMK AO2 T00171068
Loading
Personal Weather Stations






























Interactive Weather Map New forecast layout! Learn more

10-Day Weather Forecast

Advertisements
Track Severe Weather on mobile